Time;durP1;ratioP1;P1;durP2;ratioP2;P2;SDS_P1;SDS_P2;PMS_P1;PMS_P2;Temp;Humidity;BMP_temperature;BMP_pressure;BME280_temperature;BME280_humidity;BME280_pressure;Samples;Min_cycle;Max_cycle;Signal;HPM_P1;HPM_P2
2023/12/02 00:01:42;;;;;;;31.35;15.90;;;1.20;99.90;;;;;;4908323;29;20040;-78
2023/12/02 00:04:08;;;;;;;30.02;15.93;;;1.20;99.90;;;;;;4925598;29;20020;-78
2023/12/02 00:06:33;;;;;;;30.65;16.27;;;1.20;99.90;;;;;;4908701;29;20024;-77
2023/12/02 00:08:59;;;;;;;31.58;16.15;;;1.20;99.90;;;;;;4920446;29;20034;-77
2023/12/02 00:11:28;;;;;;;30.92;17.05;;;1.20;99.90;;;;;;4944015;29;20015;-78
2023/12/02 00:13:56;;;;;;;27.88;15.40;;;1.10;99.90;;;;;;4926532;29;20315;-78
2023/12/02 00:16:31;;;;;;;28.60;15.65;;;1.10;99.90;;;;;;4934711;29;20159;-78
2023/12/02 00:18:59;;;;;;;28.75;15.75;;;1.10;99.90;;;;;;4925128;29;20059;-77
2023/12/02 00:21:25;;;;;;;29.42;15.77;;;1.10;99.90;;;;;;4908029;29;20036;-78
2023/12/02 00:23:51;;;;;;;29.00;15.48;;;1.10;99.90;;;;;;4924751;29;20056;-78
2023/12/02 00:26:16;;;;;;;30.92;16.05;;;1.10;99.90;;;;;;4928665;29;20035;-78
2023/12/02 00:29:00;;;;;;;30.33;16.17;;;1.10;99.90;;;;;;4907368;29;20052;-78
2023/12/02 00:31:35;;;;;;;29.48;15.90;;;1.10;99.90;;;;;;4924912;29;20036;-78
2023/12/02 00:34:01;;;;;;;30.95;15.55;;;1.10;99.90;;;;;;4907651;29;20048;-79
2023/12/02 00:36:33;;;;;;;32.00;15.77;;;1.10;99.90;;;;;;4908285;29;20024;-78
2023/12/02 00:38:59;;;;;;;31.30;15.38;;;1.10;99.90;;;;;;4907933;29;20332;-78
2023/12/02 00:41:30;;;;;;;33.00;16.77;;;1.10;99.90;;;;;;4924743;29;20035;-78
2023/12/02 00:43:56;;;;;;;30.17;14.73;;;1.10;99.90;;;;;;4927991;29;20103;-78
2023/12/02 00:46:23;;;;;;;29.13;15.25;;;1.10;99.90;;;;;;4908386;29;20087;-81
2023/12/02 00:49:13;;;;;;;33.80;17.42;;;1.00;99.90;;;;;;4924963;29;20074;-80
2023/12/02 00:51:39;;;;;;;31.58;15.82;;;1.00;99.90;;;;;;4908300;29;20055;-78
2023/12/02 00:54:05;;;;;;;32.33;16.58;;;1.00;99.90;;;;;;4924949;29;20048;-79
2023/12/02 00:56:34;;;;;;;29.98;15.13;;;1.00;99.90;;;;;;4908107;29;20047;-79
2023/12/02 00:59:02;;;;;;;32.75;16.50;;;1.00;99.90;;;;;;4911475;29;20020;-78
2023/12/02 01:01:31;;;;;;;33.83;17.38;;;1.00;99.90;;;;;;4919326;29;20199;-79
2023/12/02 01:07:20;;;;;;;31.38;16.13;;;1.00;99.90;;;;;;4926290;29;20060;-77
2023/12/02 01:09:55;;;;;;;31.40;16.73;;;1.00;99.90;;;;;;4910519;29;20052;-78
2023/12/02 01:12:23;;;;;;;28.52;15.93;;;1.00;99.90;;;;;;4910954;29;20255;-77
2023/12/02 01:14:49;;;;;;;34.17;17.08;;;0.90;99.90;;;;;;4910536;29;20064;-78
2023/12/02 01:17:14;;;;;;;33.67;17.23;;;0.90;99.90;;;;;;4927468;29;20027;-78
2023/12/02 01:19:46;;;;;;;34.15;18.02;;;1.00;99.90;;;;;;4927790;29;20028;-79
2023/12/02 01:22:12;;;;;;;32.10;16.77;;;0.90;99.90;;;;;;4910843;29;20093;-78
2023/12/02 01:24:38;;;;;;;32.67;16.13;;;0.90;99.90;;;;;;4931670;29;20069;-78
2023/12/02 01:27:10;;;;;;;32.67;16.58;;;0.90;99.90;;;;;;4927089;29;20051;-78
2023/12/02 01:29:35;;;;;;;35.42;16.83;;;0.90;99.90;;;;;;4927417;29;20202;-78
2023/12/02 09:04:15;;;;;;;26.60;14.48;;;-0.40;99.90;;;;;;4955106;23;20052;-77
2023/12/02 09:06:41;;;;;;;26.55;14.27;;;-0.40;99.90;;;;;;4928196;29;20036;-77
2023/12/02 09:09:07;;;;;;;28.83;14.02;;;-0.40;99.90;;;;;;4928749;29;20050;-80
2023/12/02 09:11:33;;;;;;;27.13;14.52;;;-0.40;99.90;;;;;;4910461;29;20372;-78
2023/12/02 09:13:59;;;;;;;28.02;14.88;;;-0.40;99.90;;;;;;4877770;29;20029;-78
2023/12/02 09:16:54;;;;;;;25.20;14.30;;;-0.30;99.90;;;;;;4909415;29;20048;-79
2023/12/02 09:19:52;;;;;;;28.95;15.00;;;-0.30;99.90;;;;;;4882354;29;20028;-79
2023/12/02 09:22:46;;;;;;;25.85;14.25;;;-0.20;99.90;;;;;;4928104;29;20305;-78
2023/12/02 09:25:32;;;;;;;26.67;13.90;;;-0.30;99.90;;;;;;4911752;29;20032;-77
2023/12/02 09:28:05;;;;;;;28.48;13.75;;;-0.30;99.90;;;;;;4925968;29;20040;-76
2023/12/02 09:30:35;;;;;;;26.90;14.23;;;-0.20;99.90;;;;;;4913088;29;20031;-79
2023/12/02 09:33:04;;;;;;;26.48;13.52;;;-0.30;99.90;;;;;;4928848;29;20051;-77
2023/12/02 09:35:31;;;;;;;27.55;13.95;;;-0.20;99.90;;;;;;4911113;29;20213;-78
2023/12/02 09:38:01;;;;;;;23.83;13.40;;;-0.20;99.90;;;;;;4908585;29;20032;-74
2023/12/02 09:40:36;;;;;;;26.35;13.13;;;-0.20;99.90;;;;;;4926514;29;20504;-76
2023/12/02 09:43:15;;;;;;;24.10;13.43;;;-0.20;99.90;;;;;;4915529;29;20058;-74
2023/12/02 09:46:09;;;;;;;22.63;11.88;;;-0.30;99.90;;;;;;4922307;29;20028;-74
2023/12/02 09:49:06;;;;;;;24.75;12.80;;;-0.20;99.90;;;;;;4922338;29;20325;-75
2023/12/02 09:52:09;;;;;;;22.67;13.05;;;-0.20;99.90;;;;;;4907807;29;20070;-76
2023/12/02 09:54:58;;;;;;;22.73;13.68;;;-0.30;99.90;;;;;;4890873;29;20199;-76
2023/12/02 09:57:47;;;;;;;20.48;12.27;;;-0.20;99.90;;;;;;4872042;29;20159;-75
2023/12/02 10:00:31;;;;;;;23.38;11.32;;;-0.30;99.90;;;;;;4925327;29;20062;-74
2023/12/02 10:03:09;;;;;;;22.70;12.32;;;-0.20;99.90;;;;;;4926478;29;20215;-75
2023/12/02 10:06:01;;;;;;;23.27;12.23;;;-0.30;99.90;;;;;;4909502;29;20035;-75
2023/12/02 10:08:51;;;;;;;21.27;11.98;;;-0.30;99.90;;;;;;4926299;29;20043;-74
2023/12/02 10:11:54;;;;;;;24.58;12.35;;;-0.30;99.90;;;;;;4926237;29;20070;-75
2023/12/02 10:14:25;;;;;;;21.25;12.60;;;-0.30;99.90;;;;;;4921041;29;20044;-74
2023/12/02 10:16:53;;;;;;;22.05;12.48;;;-0.30;99.90;;;;;;4907917;29;20036;-73
2023/12/02 10:19:42;;;;;;;22.17;12.43;;;-0.30;99.90;;;;;;4907302;29;20036;-74
2023/12/02 10:22:10;;;;;;;19.48;10.55;;;-0.30;99.90;;;;;;4890792;29;20044;-75
2023/12/02 10:24:47;;;;;;;19.92;11.80;;;-0.30;99.90;;;;;;4907189;29;20033;-74
2023/12/02 10:27:24;;;;;;;20.25;10.73;;;-0.30;99.90;;;;;;4907533;29;20099;-78
2023/12/02 10:30:09;;;;;;;19.77;11.00;;;-0.30;99.90;;;;;;4891073;29;20242;-78
2023/12/02 10:33:03;;;;;;;20.80;11.60;;;-0.30;99.90;;;;;;4908615;29;20036;-74
2023/12/02 10:35:55;;;;;;;18.10;9.75;;;-0.20;99.90;;;;;;4925625;29;20179;-74
2023/12/02 10:38:40;;;;;;;21.58;12.05;;;-0.20;99.90;;;;;;4925760;29;20043;-75
2023/12/02 10:41:09;;;;;;;18.55;10.88;;;-0.10;99.90;;;;;;4926005;29;20071;-76
2023/12/02 10:43:39;;;;;;;19.63;10.10;;;-0.20;99.90;;;;;;4925320;29;20043;-75
2023/12/02 10:46:07;;;;;;;17.83;10.02;;;-0.10;99.90;;;;;;4926192;29;20028;-74
2023/12/02 10:48:35;;;;;;;;;;;-0.10;99.90;;;;;;4918251;29;20020;-74
2023/12/02 10:51:01;;;;;;;21.67;11.18;;;-0.10;99.90;;;;;;4926026;29;20058;-73
2023/12/02 10:53:27;;;;;;;19.08;10.90;;;-0.10;99.90;;;;;;4925565;29;20052;-75
2023/12/02 10:56:00;;;;;;;18.05;10.25;;;-0.20;99.90;;;;;;4909268;29;20024;-76
2023/12/02 10:58:28;;;;;;;19.10;10.63;;;-0.10;99.90;;;;;;4925446;29;20113;-76
2023/12/02 11:01:04;;;;;;;18.13;10.38;;;-0.10;99.90;;;;;;4925936;29;20107;-74
2023/12/02 11:03:53;;;;;;;18.33;10.93;;;-0.10;99.90;;;;;;4921339;29;20064;-73
2023/12/02 11:06:39;;;;;;;20.27;11.27;;;-0.20;99.90;;;;;;4858365;29;20052;-76
2023/12/02 11:09:16;;;;;;;17.92;10.52;;;-0.20;99.90;;;;;;4906703;29;20043;-75
2023/12/02 11:12:04;;;;;;;17.17;10.27;;;-0.10;99.90;;;;;;4905638;29;20043;-75
2023/12/02 11:14:40;;;;;;;18.03;9.13;;;-0.10;99.90;;;;;;4925231;29;20036;-74
2023/12/02 11:17:15;;;;;;;19.13;10.27;;;-0.10;99.90;;;;;;4908757;29;20039;-74
2023/12/02 11:19:52;;;;;;;17.75;10.15;;;-0.10;99.90;;;;;;4920635;29;20362;-74
2023/12/02 11:22:26;;;;;;;15.87;9.70;;;-0.10;99.90;;;;;;4906654;29;20041;-74
2023/12/02 11:25:22;;;;;;;15.82;9.23;;;0.00;99.90;;;;;;4906675;29;20037;-74
2023/12/02 11:28:05;;;;;;;15.43;8.70;;;0.00;99.90;;;;;;4906649;29;20047;-75
2023/12/02 11:30:45;;;;;;;14.57;8.13;;;-0.10;99.90;;;;;;4906514;29;20099;-75
2023/12/02 11:33:40;;;;;;;15.18;9.15;;;0.00;99.90;;;;;;4906476;29;20074;-75
2023/12/02 11:36:34;;;;;;;12.57;7.70;;;-0.10;99.90;;;;;;4892693;29;20218;-75
2023/12/02 11:39:14;;;;;;;15.30;7.90;;;0.00;99.90;;;;;;4906630;29;20036;-73
2023/12/02 11:41:55;;;;;;;15.00;8.45;;;0.00;99.90;;;;;;4905662;29;20036;-75
2023/12/02 11:45:09;;;;;;;12.98;8.13;;;-0.10;99.90;;;;;;4920884;29;20314;-75
2023/12/02 11:47:53;;;;;;;13.98;8.40;;;-0.20;99.90;;;;;;4888409;29;20052;-75
2023/12/02 11:50:34;;;;;;;14.38;8.55;;;-0.20;99.90;;;;;;4906224;29;20044;-74
2023/12/02 11:53:11;;;;;;;18.38;9.23;;;-0.20;99.90;;;;;;4894088;29;20044;-75
2023/12/02 11:55:48;;;;;;;15.32;8.63;;;-0.20;99.90;;;;;;4889335;29;20067;-75
2023/12/02 11:58:20;;;;;;;15.52;8.75;;;-0.20;99.90;;;;;;4889855;29;20311;-75
2023/12/02 12:01:05;;;;;;;14.88;9.00;;;-0.20;99.90;;;;;;4905820;29;20108;-74
2023/12/02 12:03:56;;;;;;;12.23;7.47;;;-0.20;99.90;;;;;;4888742;29;20096;-76
2023/12/02 12:06:40;;;;;;;15.40;8.63;;;0.00;99.90;;;;;;4906003;29;20037;-74
2023/12/02 12:09:27;;;;;;;14.13;7.97;;;-0.10;99.90;;;;;;4892857;29;20027;-74
2023/12/02 12:11:56;;;;;;;13.30;7.73;;;-0.10;99.90;;;;;;4923360;29;20058;-75
2023/12/02 12:14:23;;;;;;;14.57;7.90;;;-0.20;99.90;;;;;;4924876;29;20039;-74
2023/12/02 12:16:50;;;;;;;14.33;7.93;;;-0.10;99.90;;;;;;4924369;29;20031;-75
2023/12/02 12:19:15;;;;;;;13.13;8.00;;;-0.10;99.90;;;;;;4925112;29;20260;-75
2023/12/02 12:21:42;;;;;;;12.70;8.07;;;-0.10;99.90;;;;;;4912167;29;20040;-74
2023/12/02 12:24:08;;;;;;;13.13;7.78;;;-0.10;99.90;;;;;;4889474;29;20252;-75
2023/12/02 12:26:34;;;;;;;14.00;8.23;;;-0.10;99.90;;;;;;4908817;29;20028;-73
2023/12/02 12:29:01;;;;;;;14.52;7.30;;;-0.20;99.90;;;;;;4889430;29;20044;-75
2023/12/02 12:31:30;;;;;;;13.48;8.27;;;-0.20;99.90;;;;;;4905295;29;20059;-75
2023/12/02 12:33:56;;;;;;;12.90;7.72;;;-0.30;99.90;;;;;;4889154;29;20029;-74
2023/12/02 12:36:30;;;;;;;12.30;6.88;;;-0.30;99.90;;;;;;4889003;29;20306;-75
2023/12/02 12:38:57;;;;;;;12.70;7.32;;;-0.30;99.90;;;;;;4905905;29;20040;-75
2023/12/02 12:41:26;;;;;;;10.77;6.63;;;-0.20;99.90;;;;;;4920546;29;20032;-74
2023/12/02 12:43:56;;;;;;;12.48;7.13;;;-0.30;99.90;;;;;;4903787;29;20338;-75
2023/12/02 12:46:26;;;;;;;11.70;6.22;;;-0.30;99.90;;;;;;4906045;29;20059;-76
2023/12/02 12:48:53;;;;;;;10.50;6.20;;;-0.30;99.90;;;;;;4906198;29;20233;-75
2023/12/02 12:51:20;;;;;;;10.65;6.32;;;-0.30;99.90;;;;;;4924995;29;20096;-76
2023/12/02 12:54:11;;;;;;;12.65;7.22;;;-0.40;99.90;;;;;;4926642;29;20031;-76
2023/12/02 12:56:40;;;;;;;12.15;7.57;;;-0.50;99.90;;;;;;4942970;29;20190;-75
2023/12/02 12:59:14;;;;;;;12.98;7.32;;;-0.50;99.90;;;;;;4911431;29;20079;-73
2023/12/02 13:02:29;;;;;;;14.85;8.32;;;-0.50;99.90;;;;;;4910666;29;20046;-77
2023/12/02 13:05:09;;;;;;;13.85;7.95;;;-0.50;99.90;;;;;;4931395;29;20225;-76
2023/12/02 13:07:48;;;;;;;13.77;8.93;;;-0.60;99.90;;;;;;4894875;29;20373;-76
2023/12/02 13:10:17;;;;;;;13.98;9.05;;;-0.60;99.90;;;;;;4932186;29;20321;-76
2023/12/02 13:12:45;;;;;;;14.40;8.65;;;-0.60;99.90;;;;;;4946377;29;20057;-74
2023/12/02 13:15:20;;;;;;;13.38;8.70;;;-0.60;99.90;;;;;;4929842;29;20024;-75
2023/12/02 13:17:47;;;;;;;13.13;8.30;;;-0.50;99.90;;;;;;4946428;29;20031;-74
2023/12/02 13:20:16;;;;;;;13.77;8.48;;;-0.60;99.90;;;;;;4947185;29;20036;-74
2023/12/02 13:22:45;;;;;;;15.43;8.43;;;-0.70;99.90;;;;;;4944887;29;20388;-75
2023/12/02 13:25:19;;;;;;;15.07;9.18;;;-0.70;99.90;;;;;;4927629;29;20461;-75
2023/12/02 13:28:10;;;;;;;13.10;8.45;;;-0.80;99.90;;;;;;4927300;29;20392;-75
2023/12/02 13:30:39;;;;;;;14.23;8.63;;;-0.80;99.90;;;;;;4927136;29;20396;-74
2023/12/02 13:33:35;;;;;;;12.55;8.75;;;-0.90;99.90;;;;;;4927269;29;20365;-74
2023/12/02 13:36:09;;;;;;;14.75;9.40;;;-0.90;99.90;;;;;;4927163;29;20024;-75
2023/12/02 13:38:47;;;;;;;13.90;8.23;;;-0.80;99.90;;;;;;4926528;29;20032;-75
2023/12/02 13:41:17;;;;;;;;;;;-0.80;99.90;;;;;;4931375;29;20219;-75
2023/12/02 13:43:53;;;;;;;14.95;8.98;;;-0.80;99.90;;;;;;4926964;29;19950;-75
2023/12/02 13:46:32;;;;;;;14.27;9.00;;;-0.90;99.90;;;;;;4927207;29;20039;-74
2023/12/02 13:49:12;;;;;;;13.93;8.98;;;-0.90;99.90;;;;;;4927422;29;20218;-74
2023/12/02 13:51:45;;;;;;;14.75;8.75;;;-0.80;99.90;;;;;;4926788;29;20055;-74
2023/12/02 13:54:33;;;;;;;13.88;8.55;;;-0.90;99.90;;;;;;4926921;29;20397;-73
2023/12/02 13:57:23;;;;;;;11.77;7.50;;;-0.90;99.90;;;;;;4927363;29;20139;-74
2023/12/02 13:59:49;;;;;;;13.73;8.25;;;-1.00;99.90;;;;;;4930007;29;20039;-74
2023/12/02 14:02:34;;;;;;;12.45;7.90;;;-1.00;99.90;;;;;;4926717;29;20352;-75
2023/12/02 14:05:05;;;;;;;11.80;8.02;;;-1.00;99.90;;;;;;4926502;29;20040;-73
2023/12/02 14:07:36;;;;;;;13.07;7.68;;;-1.00;99.90;;;;;;4926652;29;20124;-73
2023/12/02 14:10:04;;;;;;;12.93;8.23;;;-1.00;99.90;;;;;;4929766;29;20309;-74
2023/12/02 14:12:44;;;;;;;13.50;7.90;;;-1.00;99.90;;;;;;4945933;29;20031;-73
2023/12/02 14:15:37;;;;;;;13.85;7.35;;;-1.00;99.90;;;;;;4927019;29;20027;-73
2023/12/02 14:18:39;;;;;;;11.63;7.85;;;-1.00;99.90;;;;;;4958482;29;20062;-73
2023/12/02 14:21:38;;;;;;;13.10;7.47;;;-1.00;99.90;;;;;;4943648;29;20071;-72
2023/12/02 14:24:39;;;;;;;13.68;7.93;;;-1.00;99.90;;;;;;4945329;29;20066;-74
2023/12/02 14:27:13;;;;;;;12.18;7.97;;;-1.00;99.90;;;;;;4945498;29;20336;-74
2023/12/02 14:30:16;;;;;;;12.80;7.28;;;-1.10;99.90;;;;;;4944734;29;20036;-74
2023/12/02 14:33:21;;;;;;;10.85;7.22;;;-1.00;99.90;;;;;;4927395;29;20066;-74
2023/12/02 14:35:55;;;;;;;14.00;8.27;;;-1.00;99.90;;;;;;4942590;29;20040;-74
2023/12/02 14:38:47;;;;;;;14.45;9.20;;;-1.10;99.90;;;;;;4945611;29;20070;-74
2023/12/02 14:41:38;;;;;;;15.02;8.77;;;-1.20;99.90;;;;;;4945613;29;20035;-74
2023/12/02 14:44:25;;;;;;;16.58;10.43;;;-1.20;99.90;;;;;;4945411;29;20186;-73
2023/12/02 14:47:17;;;;;;;18.10;10.43;;;-1.10;99.90;;;;;;4945064;29;20372;-74
2023/12/02 14:49:48;;;;;;;17.08;9.73;;;-1.10;99.90;;;;;;4941062;29;20048;-74
2023/12/02 14:52:18;;;;;;;17.30;10.77;;;-1.20;99.90;;;;;;4943143;29;20040;-74
2023/12/02 14:54:46;;;;;;;17.35;10.25;;;-1.20;99.90;;;;;;4929292;29;20043;-74
2023/12/02 14:57:18;;;;;;;15.85;9.90;;;-1.30;99.90;;;;;;4934499;29;20034;-75
2023/12/02 15:00:15;;;;;;;15.95;10.60;;;-1.30;99.90;;;;;;4927896;29;20047;-73
2023/12/02 15:02:50;;;;;;;15.75;9.85;;;-1.30;99.90;;;;;;4925515;29;20386;-74
2023/12/02 15:05:20;;;;;;;18.40;11.02;;;-1.30;99.90;;;;;;4925948;29;20040;-75
2023/12/02 15:07:53;;;;;;;17.90;10.52;;;-1.30;99.90;;;;;;4908922;29;20047;-75
2023/12/02 15:10:21;;;;;;;16.98;11.30;;;-1.40;99.90;;;;;;4930996;29;20522;-74
2023/12/02 15:12:48;;;;;;;17.50;10.87;;;-1.40;99.90;;;;;;4944268;29;20220;-73
2023/12/02 15:15:33;;;;;;;15.32;10.05;;;-1.40;99.90;;;;;;4927919;29;20431;-74
2023/12/02 15:18:21;;;;;;;15.07;10.00;;;-1.40;99.90;;;;;;4943627;29;20031;-75
2023/12/02 15:21:05;;;;;;;;;;;-1.40;99.90;;;;;;4928178;29;20031;-73
2023/12/02 15:23:35;;;;;;;15.18;9.65;;;-1.40;99.90;;;;;;4935849;29;20256;-74
2023/12/02 15:26:01;;;;;;;16.58;10.00;;;-1.40;99.90;;;;;;4925089;29;20360;-73
2023/12/02 15:28:35;;;;;;;13.68;8.75;;;-1.40;99.90;;;;;;4925366;29;20028;-75
2023/12/02 15:31:26;;;;;;;16.58;10.55;;;-1.40;99.90;;;;;;4925439;29;20048;-74
2023/12/02 15:33:55;;;;;;;16.40;10.15;;;-1.50;99.90;;;;;;4890893;29;20052;-74
2023/12/02 15:36:26;;;;;;;16.48;10.25;;;-1.50;99.90;;;;;;4925518;29;20251;-75
2023/12/02 15:38:54;;;;;;;16.65;10.38;;;-1.50;99.90;;;;;;4925122;29;20040;-75
2023/12/02 15:41:22;;;;;;;15.88;10.13;;;-1.60;99.90;;;;;;4912057;29;20036;-75
2023/12/02 15:43:54;;;;;;;;;;;-1.60;99.90;;;;;;4925953;29;20066;-74
2023/12/02 15:46:25;;;;;;;15.57;10.25;;;-1.60;99.90;;;;;;4924077;29;20101;-74
2023/12/02 15:48:51;;;;;;;14.85;8.93;;;-1.60;99.90;;;;;;4924750;29;20100;-76
2023/12/02 15:51:25;;;;;;;13.85;8.63;;;-1.50;99.90;;;;;;4928643;29;20036;-76
2023/12/02 15:56:42;;;;;;;13.50;9.23;;;-1.50;99.90;;;;;;4920715;29;20087;-74
2023/12/02 15:59:12;;;;;;;;;;;-1.60;99.90;;;;;;4925574;29;20052;-77
2023/12/02 16:01:49;;;;;;;11.65;8.07;;;-1.60;99.90;;;;;;4943995;29;20188;-73
2023/12/02 16:04:15;;;;;;;12.57;8.10;;;-1.70;99.90;;;;;;4945293;29;20298;-77
2023/12/02 16:06:45;;;;;;;14.52;9.70;;;-1.70;99.90;;;;;;4944330;29;20040;-77
2023/12/02 16:09:21;;;;;;;12.98;8.60;;;-1.70;99.90;;;;;;4940542;29;20047;-74
2023/12/02 16:11:51;;;;;;;13.40;8.70;;;-1.70;99.90;;;;;;4942268;29;20110;-75
2023/12/02 16:14:20;;;;;;;13.30;8.60;;;-1.80;99.90;;;;;;4944989;29;20046;-76
2023/12/02 16:16:46;;;;;;;13.55;8.75;;;-1.70;99.90;;;;;;4944782;29;20090;-74
2023/12/02 16:19:12;;;;;;;14.02;8.75;;;-1.70;99.90;;;;;;4945328;29;20306;-76
2023/12/02 16:21:41;;;;;;;15.43;9.35;;;-1.70;99.90;;;;;;4945409;29;20036;-75
2023/12/02 16:24:07;;;;;;;12.93;8.80;;;-1.70;99.90;;;;;;4928253;29;20353;-75
2023/12/02 16:26:39;;;;;;;13.52;7.95;;;-1.70;99.90;;;;;;4937533;29;20095;-76
2023/12/02 16:29:06;;;;;;;13.45;8.60;;;-1.70;99.90;;;;;;4930852;29;20044;-75
2023/12/02 16:31:31;;;;;;;13.55;8.13;;;-1.70;99.90;;;;;;4916155;29;20023;-75
2023/12/02 16:33:57;;;;;;;13.05;8.30;;;-1.80;99.90;;;;;;4949542;29;20079;-75
2023/12/02 16:36:27;;;;;;;14.65;8.98;;;-1.80;99.90;;;;;;4932157;29;20042;-77
2023/12/02 16:39:18;;;;;;;14.23;9.15;;;-1.80;99.90;;;;;;4948823;29;20020;-76
2023/12/02 16:41:47;;;;;;;12.73;7.65;;;-1.80;99.90;;;;;;4931259;29;20364;-74
2023/12/02 16:44:16;;;;;;;13.55;8.00;;;-1.80;99.90;;;;;;4944028;29;20051;-76
2023/12/02 16:46:45;;;;;;;12.88;8.10;;;-1.80;99.90;;;;;;4947814;29;20309;-75
2023/12/02 16:49:24;;;;;;;10.35;7.20;;;-1.70;99.90;;;;;;4948206;29;20055;-75
2023/12/02 16:51:52;;;;;;;15.80;8.35;;;-1.70;99.90;;;;;;4930914;29;20050;-75
2023/12/02 16:54:32;;;;;;;16.92;9.63;;;-1.80;99.90;;;;;;4931119;29;20035;-75
2023/12/02 16:57:28;;;;;;;13.27;8.73;;;-1.80;99.90;;;;;;4947799;29;20071;-76
2023/12/02 16:59:59;;;;;;;12.82;8.45;;;-1.80;99.90;;;;;;4910184;29;20262;-74
2023/12/02 17:02:38;;;;;;;15.45;9.60;;;-1.70;99.90;;;;;;4937918;29;20155;-74
2023/12/02 17:05:25;;;;;;;14.68;8.95;;;-1.70;99.90;;;;;;4928673;29;20024;-75
2023/12/02 17:08:23;;;;;;;13.70;8.85;;;-1.70;99.90;;;;;;4928648;29;20107;-76
2023/12/02 17:11:32;;;;;;;12.82;8.35;;;-1.70;99.90;;;;;;4937841;29;20079;-74
2023/12/02 17:14:05;;;;;;;12.60;8.10;;;-1.60;99.90;;;;;;4889102;29;20060;-75
2023/12/02 17:16:31;;;;;;;13.18;7.97;;;-1.70;99.90;;;;;;4874003;29;20036;-75
2023/12/02 17:19:16;;;;;;;14.30;8.40;;;-1.70;99.90;;;;;;4892622;29;20295;-74
2023/12/02 17:21:48;;;;;;;15.95;9.23;;;-1.70;99.90;;;;;;4858683;29;20275;-75
2023/12/02 17:24:27;;;;;;;16.75;10.02;;;-1.60;99.90;;;;;;4889478;29;20406;-76
2023/12/02 17:26:56;;;;;;;14.85;9.07;;;-1.60;99.90;;;;;;4887728;29;20234;-74
2023/12/02 17:29:33;;;;;;;15.20;9.35;;;-1.70;99.90;;;;;;4889200;29;20239;-75
2023/12/02 17:32:08;;;;;;;15.60;9.18;;;-1.70;99.90;;;;;;4888797;29;20097;-75
2023/12/02 17:34:40;;;;;;;15.35;9.45;;;-1.70;99.90;;;;;;4892400;29;20028;-75
2023/12/02 17:37:05;;;;;;;14.77;9.75;;;-1.80;99.90;;;;;;4889070;29;20216;-76
2023/12/02 17:39:31;;;;;;;16.05;9.77;;;-1.80;99.90;;;;;;4857322;29;20191;-75
2023/12/02 17:41:57;;;;;;;15.25;9.85;;;-1.80;99.90;;;;;;4888661;29;20032;-74
2023/12/02 17:44:22;;;;;;;15.68;10.07;;;-1.80;99.90;;;;;;4889267;29;20235;-75
2023/12/02 17:46:49;;;;;;;19.00;10.63;;;-1.80;99.90;;;;;;4873068;29;20088;-74
2023/12/02 17:49:16;;;;;;;16.98;10.45;;;-1.70;99.90;;;;;;4889338;29;20260;-74
2023/12/02 17:51:42;;;;;;;16.42;10.10;;;-1.80;99.90;;;;;;4935703;29;20257;-75
2023/12/02 17:54:08;;;;;;;15.57;9.27;;;-1.80;99.90;;;;;;4931533;29;20318;-76
2023/12/02 17:56:38;;;;;;;14.02;9.25;;;-1.80;99.90;;;;;;4911454;29;20063;-79
2023/12/02 17:59:13;;;;;;;16.33;9.85;;;-1.80;99.90;;;;;;4910771;29;20234;-78
2023/12/02 18:02:22;;;;;;;15.75;9.65;;;-1.80;99.90;;;;;;4939767;29;20040;-79
2023/12/02 18:05:21;;;;;;;16.17;9.43;;;-1.70;99.90;;;;;;4913297;29;20118;-78
2023/12/02 18:07:56;;;;;;;15.18;9.52;;;-1.70;99.90;;;;;;4910355;29;20396;-79
2023/12/02 18:11:08;;;;;;;16.40;9.73;;;-1.90;99.90;;;;;;4912258;29;20027;-78
2023/12/02 18:14:08;;;;;;;17.17;9.35;;;-1.90;99.90;;;;;;4932203;29;20067;-77
2023/12/02 18:16:33;;;;;;;14.27;9.05;;;-1.80;99.90;;;;;;4914171;29;20147;-78
2023/12/02 18:19:03;;;;;;;13.48;9.23;;;-2.00;99.90;;;;;;4927094;29;20106;-77
2023/12/02 18:21:44;;;;;;;15.38;9.70;;;-2.00;99.90;;;;;;4926772;29;20035;-79
2023/12/02 18:24:10;;;;;;;16.50;10.50;;;-2.00;99.90;;;;;;4946336;29;20035;-80
2023/12/02 18:27:04;;;;;;;16.40;10.25;;;-2.00;99.90;;;;;;4946865;29;20027;-79
2023/12/02 18:29:42;;;;;;;14.93;9.43;;;-1.90;99.90;;;;;;4943136;29;20027;-79
2023/12/02 18:32:30;;;;;;;16.38;10.15;;;-1.90;99.90;;;;;;4928389;29;20039;-78
2023/12/02 18:34:57;;;;;;;14.35;9.90;;;-1.90;99.90;;;;;;4928991;29;20034;-78
2023/12/02 18:40:31;;;;;;;16.65;9.52;;;-1.90;99.90;;;;;;4907424;29;20051;-79
2023/12/02 18:43:00;;;;;;;15.85;10.55;;;-1.90;99.90;;;;;;4928753;29;20036;-78
2023/12/02 18:46:01;;;;;;;16.70;10.60;;;-2.00;99.90;;;;;;4932838;29;20137;-80
2023/12/02 18:48:27;;;;;;;18.33;10.27;;;-1.90;99.90;;;;;;4910080;29;20024;-78
2023/12/02 18:50:53;;;;;;;17.60;10.02;;;-1.90;99.90;;;;;;4927150;29;20036;-78
2023/12/02 18:53:19;;;;;;;14.70;9.10;;;-1.90;99.90;;;;;;4928148;29;20091;-79
2023/12/02 18:55:57;;;;;;;15.27;9.55;;;-1.90;99.90;;;;;;4944267;29;20036;-80
2023/12/02 18:58:27;;;;;;;;;;;-1.90;99.90;;;;;;4926994;29;20036;-78
2023/12/02 19:01:27;;;;;;;18.45;10.63;;;-1.90;99.90;;;;;;4913933;29;20014;-80
2023/12/02 19:04:08;;;;;;;16.77;9.93;;;-2.00;99.90;;;;;;4911127;29;20055;-78
2023/12/02 19:13:55;;;;;;;14.73;9.10;;;-2.00;99.90;;;;;;4926500;29;20104;-79
2023/12/02 19:16:23;;;;;;;13.55;9.07;;;-1.90;99.90;;;;;;4925800;29;20024;-81
2023/12/02 19:19:09;;;;;;;14.75;9.10;;;-2.00;99.90;;;;;;4925518;29;20226;-79
2023/12/02 19:21:59;;;;;;;14.35;9.25;;;-2.00;99.90;;;;;;4904898;29;20068;-81
2023/12/02 19:24:31;;;;;;;15.68;10.40;;;-2.00;99.90;;;;;;4890480;29;20049;-80
2023/12/02 19:27:03;;;;;;;16.77;9.27;;;-1.90;99.90;;;;;;4890184;29;20235;-80
2023/12/02 19:29:52;;;;;;;14.48;8.93;;;-2.00;99.90;;;;;;4906372;29;20376;-79
2023/12/02 19:32:21;;;;;;;14.98;9.30;;;-2.00;99.90;;;;;;4890804;29;20111;-81
2023/12/02 19:41:41;;;;;;;14.15;7.75;;;-2.00;99.90;;;;;;4862482;29;20041;-80
2023/12/02 19:47:32;;;;;;;13.88;9.15;;;-2.10;99.90;;;;;;4880592;29;20055;-80
2023/12/02 19:50:23;;;;;;;13.65;8.48;;;-2.10;99.90;;;;;;4886609;29;20096;-80
2023/12/02 19:52:52;;;;;;;12.73;7.78;;;-2.10;99.90;;;;;;4868581;29;20061;-80
2023/12/02 19:55:18;;;;;;;14.13;8.07;;;-2.00;99.90;;;;;;4866577;29;20041;-80
2023/12/02 20:00:59;;;;;;;;;;;-2.10;99.90;;;;;;4851357;29;20046;-78
2023/12/02 20:04:16;;;;;;;11.77;7.38;;;-2.10;99.90;;;;;;4852860;29;19968;-79
2023/12/02 20:07:17;;;;;;;11.35;7.00;;;-2.10;99.90;;;;;;4845551;29;20048;-79
2023/12/02 20:09:43;;;;;;;11.13;6.97;;;-2.10;99.90;;;;;;4842894;29;20046;-79
2023/12/02 20:12:15;;;;;;;11.57;6.93;;;-2.10;99.90;;;;;;4870981;29;20037;-80
2023/12/02 20:14:41;;;;;;;14.23;7.30;;;-2.10;99.90;;;;;;4860264;29;20110;-78
2023/12/02 20:17:19;;;;;;;;;;;-2.10;99.90;;;;;;4862331;29;20033;-79
2023/12/02 20:19:51;;;;;;;13.18;8.05;;;-2.00;99.90;;;;;;4875511;29;19943;-79
2023/12/02 20:22:18;;;;;;;13.80;8.15;;;-2.00;99.90;;;;;;4874802;29;20052;-79
2023/12/02 20:25:03;;;;;;;14.07;8.57;;;-2.00;99.90;;;;;;4874972;29;20069;-79
2023/12/02 20:27:58;;;;;;;9.68;6.70;;;-2.10;99.90;;;;;;4870911;29;20180;-78
2023/12/02 20:30:23;;;;;;;14.93;8.45;;;-2.20;99.90;;;;;;4886843;29;20116;-79
2023/12/02 20:32:52;;;;;;;13.98;7.85;;;-2.10;99.90;;;;;;4925473;29;20025;-78
2023/12/02 20:35:50;;;;;;;12.25;8.18;;;-2.10;99.90;;;;;;4925137;29;20310;-79
2023/12/02 20:38:18;;;;;;;10.55;6.75;;;-2.10;99.90;;;;;;4903937;29;20069;-77
2023/12/02 20:40:53;;;;;;;12.38;7.32;;;-2.00;99.90;;;;;;4925228;29;20044;-77
2023/12/02 20:43:25;;;;;;;11.93;7.97;;;-2.00;99.90;;;;;;4924761;29;20040;-79
2023/12/02 20:46:00;;;;;;;11.40;6.88;;;-2.00;99.90;;;;;;4944259;29;20116;-80
2023/12/02 20:48:45;;;;;;;13.07;7.70;;;-2.00;99.90;;;;;;4909152;29;20043;-80
2023/12/02 20:51:18;;;;;;;11.30;7.15;;;-2.10;99.90;;;;;;4908165;29;20330;-78
2023/12/02 20:53:45;;;;;;;10.18;6.07;;;-2.10;99.90;;;;;;4908960;29;20073;-80
2023/12/02 20:56:14;;;;;;;11.68;7.10;;;-2.10;99.90;;;;;;4908102;29;20041;-80
2023/12/02 20:58:40;;;;;;;12.23;7.53;;;-2.00;99.90;;;;;;4909372;29;20056;-79
2023/12/02 21:01:10;;;;;;;11.65;7.32;;;-2.00;99.90;;;;;;4910104;29;20076;-78
2023/12/02 21:03:57;;;;;;;10.73;6.65;;;-2.00;99.90;;;;;;4908347;29;20096;-77
2023/12/02 21:06:56;;;;;;;12.68;7.65;;;-2.00;99.90;;;;;;4908821;29;20256;-77
2023/12/02 21:09:48;;;;;;;12.27;6.93;;;-2.00;99.90;;;;;;4892266;29;20240;-79
2023/12/02 21:15:50;;;;;;;12.82;7.70;;;-2.00;99.90;;;;;;4908803;29;20051;-81
2023/12/02 21:18:27;;;;;;;12.38;8.15;;;-2.00;99.90;;;;;;4909859;29;20024;-80
2023/12/02 21:20:59;;;;;;;13.02;8.15;;;-2.00;99.90;;;;;;4927178;29;20027;-79
2023/12/02 21:26:25;;;;;;;12.88;8.15;;;-1.90;99.90;;;;;;4891089;29;20226;-78
2023/12/02 21:29:10;;;;;;;15.93;8.57;;;-1.90;99.90;;;;;;4876709;29;20250;-78
2023/12/02 21:31:52;;;;;;;12.77;7.93;;;-1.90;99.90;;;;;;4876482;29;20164;-80